createdAt,value
2023-05-19T00:02:06.174Z,14.38
2023-05-19T00:04:35.399Z,14.38
2023-05-19T00:07:03.485Z,14.34
2023-05-19T00:09:31.453Z,14.39
2023-05-19T00:11:59.059Z,14.42
2023-05-19T00:14:26.418Z,14.45
2023-05-19T00:16:56.075Z,14.34
2023-05-19T00:19:24.579Z,14.34
2023-05-19T00:21:52.038Z,14.25
2023-05-19T00:24:19.172Z,14.30
2023-05-19T00:26:46.580Z,14.30
2023-05-19T00:29:18.391Z,14.28
2023-05-19T00:31:46.653Z,14.29
2023-05-19T00:34:14.133Z,14.24
2023-05-19T00:36:41.528Z,14.19
2023-05-19T00:39:08.668Z,14.20
2023-05-19T00:41:36.106Z,14.30
2023-05-19T00:44:03.590Z,14.27
2023-05-19T00:46:30.874Z,14.27
2023-05-19T00:48:58.365Z,14.29
2023-05-19T00:51:26.817Z,14.15
2023-05-19T00:53:54.035Z,14.15
2023-05-19T00:56:21.861Z,14.16
2023-05-19T00:58:51.063Z,14.15
2023-05-19T01:01:19.323Z,14.16
2023-05-19T01:03:48.184Z,14.19
2023-05-19T01:06:15.583Z,14.10
2023-05-19T01:08:42.767Z,14.01
2023-05-19T01:11:10.753Z,13.88
2023-05-19T01:13:40.336Z,13.80
2023-05-19T01:16:17.404Z,13.87
2023-05-19T01:18:47.873Z,13.74
2023-05-19T01:21:17.720Z,13.61
2023-05-19T01:24:12.000Z,13.54
2023-05-19T01:26:56.895Z,13.56
2023-05-19T01:29:39.875Z,13.50
2023-05-19T01:32:08.121Z,13.52
2023-05-19T01:34:42.073Z,13.51
2023-05-19T01:37:09.728Z,13.43
2023-05-19T01:39:37.455Z,13.32
2023-05-19T01:42:04.989Z,13.28
2023-05-19T01:44:33.059Z,13.20
2023-05-19T01:47:01.231Z,13.24
2023-05-19T01:49:28.535Z,13.17
2023-05-19T01:51:56.288Z,13.12
2023-05-19T01:54:23.782Z,13.06
2023-05-19T01:57:17.432Z,12.99
2023-05-19T02:00:15.881Z,12.97
2023-05-19T02:02:49.575Z,12.91
2023-05-19T02:05:41.853Z,12.93
2023-05-19T02:08:12.548Z,12.90
2023-05-19T02:10:43.490Z,12.86
2023-05-19T02:13:14.113Z,12.84
2023-05-19T02:15:42.431Z,12.79
2023-05-19T02:18:11.560Z,12.77
2023-05-19T02:20:40.033Z,12.70
2023-05-19T02:23:07.528Z,12.69
2023-05-19T02:25:35.048Z,12.69
2023-05-19T02:28:02.315Z,12.68
2023-05-19T02:30:32.069Z,12.70
2023-05-19T02:33:00.587Z,12.76
2023-05-19T02:35:28.068Z,12.72
2023-05-19T02:37:55.548Z,12.71
2023-05-19T02:40:23.316Z,12.76
2023-05-19T02:42:50.578Z,12.74
2023-05-19T02:45:18.074Z,12.70
2023-05-19T02:47:45.385Z,12.69
2023-05-19T02:50:12.577Z,12.61
2023-05-19T02:52:40.400Z,12.49
2023-05-19T02:55:08.203Z,12.45
2023-05-19T02:57:35.601Z,12.49
2023-05-19T03:00:03.587Z,12.50
2023-05-19T03:02:33.386Z,12.49
2023-05-19T03:05:02.858Z,12.50
2023-05-19T03:07:30.982Z,12.53
2023-05-19T03:09:58.178Z,12.50
2023-05-19T03:12:25.413Z,12.41
2023-05-19T03:14:52.937Z,12.31
2023-05-19T03:17:20.216Z,12.20
2023-05-19T03:19:47.535Z,12.16
2023-05-19T03:22:15.413Z,12.22
2023-05-19T03:24:42.587Z,12.30
2023-05-19T03:27:11.990Z,12.38
2023-05-19T03:29:39.543Z,12.41
2023-05-19T03:32:06.926Z,12.42
2023-05-19T03:34:35.468Z,12.37
2023-05-19T03:37:03.190Z,12.37
2023-05-19T03:39:31.046Z,12.33
2023-05-19T03:41:58.268Z,12.37
2023-05-19T03:44:26.230Z,12.45
2023-05-19T03:46:53.564Z,12.51
2023-05-19T03:49:21.206Z,12.52
2023-05-19T03:51:59.635Z,12.57
2023-05-19T03:54:27.503Z,12.59
2023-05-19T03:56:54.904Z,12.62
2023-05-19T03:59:23.633Z,12.70
2023-05-19T04:01:51.584Z,12.74
2023-05-19T04:04:19.189Z,12.82
2023-05-19T04:06:46.737Z,12.95
2023-05-19T04:09:15.826Z,13.02
2023-05-19T04:11:43.380Z,13.07
2023-05-19T04:14:10.707Z,13.13
2023-05-19T04:16:37.944Z,13.22
2023-05-19T04:19:05.788Z,13.36
2023-05-19T04:21:33.232Z,13.48
2023-05-19T04:24:00.441Z,14.48
2023-05-19T04:26:30.997Z,15.45
2023-05-19T04:28:58.425Z,16.16
2023-05-19T04:31:26.083Z,16.57
2023-05-19T04:33:53.692Z,16.85
2023-05-19T04:36:21.850Z,17.11
2023-05-19T04:38:49.434Z,17.18
2023-05-19T04:41:17.575Z,17.33
2023-05-19T04:43:45.013Z,17.65
2023-05-19T04:46:13.961Z,17.88
2023-05-19T04:48:42.711Z,18.01
2023-05-19T04:51:10.137Z,17.94
2023-05-19T04:53:37.363Z,17.98
2023-05-19T04:56:07.874Z,18.10
2023-05-19T04:58:35.593Z,18.15
2023-05-19T05:01:03.855Z,18.26
2023-05-19T05:03:33.214Z,18.06
2023-05-19T05:06:01.092Z,17.74
2023-05-19T05:08:30.184Z,17.48
2023-05-19T05:10:58.133Z,17.19
2023-05-19T05:13:26.711Z,17.50
2023-05-19T05:15:54.470Z,17.87
2023-05-19T05:18:22.399Z,18.08
2023-05-19T05:20:50.333Z,18.11
2023-05-19T05:23:17.875Z,18.00
2023-05-19T05:25:47.114Z,17.71
2023-05-19T05:28:14.627Z,17.59
2023-05-19T05:30:42.059Z,16.88
2023-05-19T05:33:09.899Z,16.46
2023-05-19T05:35:37.546Z,16.16
2023-05-19T05:38:04.906Z,15.83
2023-05-19T05:40:32.578Z,15.72
2023-05-19T05:42:59.888Z,15.49
2023-05-19T05:45:27.669Z,15.55
2023-05-19T05:47:55.706Z,15.29
2023-05-19T05:50:23.831Z,15.42
2023-05-19T05:52:53.193Z,15.48
2023-05-19T05:55:21.096Z,15.60
2023-05-19T05:57:50.603Z,15.70
2023-05-19T06:00:18.637Z,15.69
2023-05-19T06:02:50.625Z,15.75
2023-05-19T06:05:18.099Z,15.70
2023-05-19T06:07:46.787Z,15.64
2023-05-19T06:10:16.864Z,15.60
2023-05-19T06:12:44.112Z,15.77
2023-05-19T06:15:11.631Z,15.96
2023-05-19T06:17:43.562Z,15.93
2023-05-19T06:20:11.697Z,16.01
2023-05-19T06:22:39.235Z,16.06
2023-05-19T06:25:08.945Z,15.98
2023-05-19T06:27:36.295Z,16.01
2023-05-19T06:30:04.249Z,15.98
2023-05-19T06:32:32.257Z,15.97
2023-05-19T06:34:59.893Z,16.12
2023-05-19T06:37:27.395Z,16.11
2023-05-19T06:39:55.789Z,16.08
2023-05-19T06:42:24.025Z,16.25
2023-05-19T06:44:53.068Z,16.44
2023-05-19T06:47:20.350Z,16.56
2023-05-19T06:49:50.868Z,16.58
2023-05-19T06:52:19.158Z,16.72
2023-05-19T06:54:50.875Z,16.94
2023-05-19T06:57:18.056Z,16.90
2023-05-19T06:59:46.757Z,16.79
2023-05-19T07:02:14.426Z,16.69
2023-05-19T07:04:42.556Z,16.83
2023-05-19T07:07:10.457Z,16.81
2023-05-19T07:09:38.167Z,17.07
2023-05-19T07:12:05.983Z,17.20
2023-05-19T07:14:33.657Z,17.29
2023-05-19T07:17:01.053Z,17.37
2023-05-19T07:19:28.300Z,17.02
2023-05-19T07:21:57.029Z,16.92
2023-05-19T07:24:25.091Z,16.99
2023-05-19T07:26:52.299Z,16.97
2023-05-19T07:29:19.789Z,16.58
2023-05-19T07:31:46.987Z,16.51
2023-05-19T07:34:14.332Z,16.58
2023-05-19T07:36:42.142Z,16.89
2023-05-19T07:39:09.503Z,17.24
2023-05-19T07:41:36.781Z,17.45
2023-05-19T07:44:07.763Z,17.70
2023-05-19T07:46:35.552Z,17.86
2023-05-19T07:49:03.383Z,17.70
2023-05-19T07:51:31.779Z,17.71
2023-05-19T07:53:59.014Z,17.87
2023-05-19T07:56:26.193Z,17.77
2023-05-19T07:58:53.689Z,17.80
2023-05-19T08:01:20.945Z,17.97
2023-05-19T08:03:48.440Z,18.33
2023-05-19T08:06:15.699Z,18.43
2023-05-19T08:08:42.808Z,18.25
2023-05-19T08:11:10.189Z,18.23
2023-05-19T08:13:37.292Z,18.29
2023-05-19T08:16:05.113Z,18.15
2023-05-19T08:18:32.602Z,17.98
2023-05-19T08:20:59.762Z,18.10
2023-05-19T08:23:26.953Z,18.19
2023-05-19T08:25:54.409Z,18.23
2023-05-19T08:28:21.566Z,18.51
2023-05-19T08:30:50.750Z,18.59
2023-05-19T08:33:20.742Z,18.63
2023-05-19T08:35:47.937Z,18.56
2023-05-19T08:38:15.089Z,18.63
2023-05-19T08:40:42.821Z,18.71
2023-05-19T08:43:11.240Z,18.62
2023-05-19T08:45:41.689Z,18.55
2023-05-19T08:48:09.234Z,18.49
2023-05-19T08:50:39.884Z,18.42
2023-05-19T08:53:33.767Z,18.77
2023-05-19T08:56:10.400Z,18.82
2023-05-19T08:58:40.205Z,18.94
2023-05-19T09:01:08.006Z,18.79
2023-05-19T09:03:39.313Z,18.63
2023-05-19T09:06:12.575Z,18.78
2023-05-19T09:08:41.078Z,18.88
2023-05-19T09:11:09.610Z,18.87
2023-05-19T09:13:36.785Z,18.92
2023-05-19T09:16:04.439Z,18.95
2023-05-19T09:18:31.850Z,18.92
2023-05-19T09:21:03.223Z,18.93
2023-05-19T09:23:34.034Z,18.94
2023-05-19T09:26:07.689Z,19.05
2023-05-19T09:28:36.841Z,19.14
2023-05-19T09:31:08.230Z,19.15
2023-05-19T09:33:37.084Z,18.89
2023-05-19T09:36:11.575Z,18.89
2023-05-19T09:38:39.644Z,18.89
2023-05-19T09:41:08.313Z,18.91
2023-05-19T09:43:35.637Z,18.96
2023-05-19T09:46:07.970Z,18.91
2023-05-19T09:48:36.447Z,18.80
2023-05-19T09:51:08.214Z,18.96
2023-05-19T09:53:35.521Z,19.02
2023-05-19T09:56:04.121Z,19.38
2023-05-19T09:58:35.419Z,19.75
2023-05-19T10:01:04.303Z,20.15
2023-05-19T10:03:35.243Z,20.35
2023-05-19T10:06:04.502Z,20.62
2023-05-19T10:08:33.533Z,20.31
2023-05-19T10:11:00.989Z,19.99
2023-05-19T10:13:29.473Z,19.94
2023-05-19T10:15:59.446Z,20.13
2023-05-19T10:18:30.139Z,20.22
2023-05-19T10:20:58.185Z,20.32
2023-05-19T10:23:25.781Z,20.20
2023-05-19T10:25:56.822Z,19.97
2023-05-19T10:28:28.391Z,19.85
2023-05-19T10:30:59.039Z,19.81
2023-05-19T10:33:42.487Z,20.07
2023-05-19T10:36:15.914Z,20.64
2023-05-19T10:38:55.928Z,20.84
2023-05-19T10:41:37.181Z,20.57
2023-05-19T10:44:04.999Z,20.62
2023-05-19T10:46:32.266Z,21.01
2023-05-19T10:48:59.543Z,21.37
2023-05-19T10:51:33.727Z,21.45
2023-05-19T10:54:08.078Z,21.51
2023-05-19T10:56:42.334Z,21.26
2023-05-19T10:59:37.170Z,21.31
2023-05-19T11:02:05.727Z,21.45
2023-05-19T11:05:07.738Z,21.53
2023-05-19T11:07:35.561Z,21.71
2023-05-19T11:10:07.590Z,21.54
2023-05-19T11:12:45.850Z,21.17
2023-05-19T11:15:16.536Z,21.25
2023-05-19T11:17:48.837Z,21.33
2023-05-19T11:20:26.706Z,21.31
2023-05-19T11:23:07.197Z,21.43
2023-05-19T11:25:51.462Z,21.59
2023-05-19T11:28:20.945Z,21.61
2023-05-19T11:30:50.807Z,21.35
2023-05-19T11:33:19.962Z,21.21
2023-05-19T11:35:49.527Z,21.32
2023-05-19T11:38:20.383Z,21.47
2023-05-19T11:40:49.668Z,21.45
2023-05-19T11:43:16.858Z,21.39
2023-05-19T11:45:44.420Z,21.27
2023-05-19T11:48:12.973Z,20.91
2023-05-19T11:50:44.150Z,20.64
2023-05-19T11:53:16.725Z,20.51
2023-05-19T11:55:48.116Z,20.44
2023-05-19T11:58:16.640Z,20.44
2023-05-19T12:00:46.252Z,20.33
2023-05-19T12:03:13.988Z,20.50
2023-05-19T12:05:45.330Z,20.77
2023-05-19T12:08:12.959Z,20.98
2023-05-19T12:10:40.978Z,20.94
2023-05-19T12:13:11.731Z,21.21
2023-05-19T12:15:39.258Z,21.18
2023-05-19T12:18:07.376Z,20.99
2023-05-19T12:20:37.793Z,20.97
2023-05-19T12:23:05.753Z,21.18
2023-05-19T12:25:33.529Z,21.19
2023-05-19T12:28:04.639Z,21.29
2023-05-19T12:30:33.203Z,21.20
2023-05-19T12:33:01.806Z,21.11
2023-05-19T12:35:30.706Z,21.21
2023-05-19T12:38:03.369Z,21.50
2023-05-19T12:40:31.045Z,21.77
2023-05-19T12:42:59.338Z,21.90
2023-05-19T12:45:28.572Z,21.97
2023-05-19T12:47:56.681Z,22.09
2023-05-19T12:50:30.917Z,22.16
2023-05-19T12:52:59.971Z,22.26
2023-05-19T12:55:27.298Z,22.12
2023-05-19T12:57:57.072Z,21.83
2023-05-19T13:00:27.756Z,21.91
2023-05-19T13:02:55.379Z,21.71
2023-05-19T13:05:22.995Z,21.82
2023-05-19T13:07:57.933Z,21.86
2023-05-19T13:10:29.004Z,21.97
2023-05-19T13:13:00.453Z,22.16
2023-05-19T13:15:31.850Z,22.21
2023-05-19T13:18:00.558Z,21.92
2023-05-19T13:20:28.647Z,21.88
2023-05-19T13:22:56.992Z,21.92
2023-05-19T13:25:24.600Z,21.94
2023-05-19T13:27:51.897Z,21.86
2023-05-19T13:30:19.466Z,21.84
2023-05-19T13:32:47.140Z,22.05
2023-05-19T13:35:14.993Z,22.01
2023-05-19T13:37:42.749Z,22.19
2023-05-19T13:40:10.981Z,22.18
2023-05-19T13:42:38.384Z,22.31
2023-05-19T13:45:06.154Z,22.49
2023-05-19T13:47:33.729Z,22.65
2023-05-19T13:50:04.607Z,22.78
2023-05-19T13:52:31.989Z,22.94
2023-05-19T13:54:59.521Z,22.77
2023-05-19T13:57:26.814Z,22.84
2023-05-19T14:00:02.815Z,22.75
2023-05-19T14:02:39.822Z,22.73
2023-05-19T14:05:08.094Z,22.44
2023-05-19T14:07:35.939Z,22.52
2023-05-19T14:10:05.485Z,22.58
2023-05-19T14:12:41.647Z,22.60
2023-05-19T14:15:20.135Z,22.63
2023-05-19T14:17:49.034Z,22.69
2023-05-19T14:20:16.795Z,22.67
2023-05-19T14:22:44.003Z,22.73
2023-05-19T14:25:11.521Z,22.82
2023-05-19T14:27:40.040Z,22.91
2023-05-19T14:30:08.405Z,23.02
2023-05-19T14:32:36.116Z,22.94
2023-05-19T14:35:03.678Z,22.97
2023-05-19T14:37:31.953Z,23.02
2023-05-19T14:39:59.569Z,23.03
2023-05-19T14:42:26.822Z,23.06
2023-05-19T14:44:54.066Z,22.95
2023-05-19T14:47:21.558Z,22.90
2023-05-19T14:49:48.915Z,22.80
2023-05-19T14:52:16.252Z,22.87
2023-05-19T14:54:43.734Z,22.95
2023-05-19T14:57:10.962Z,23.02
2023-05-19T14:59:38.735Z,22.98
2023-05-19T15:02:06.387Z,23.06
2023-05-19T15:04:33.647Z,23.12
2023-05-19T15:09:31.803Z,23.30
2023-05-19T15:12:01.159Z,23.44
2023-05-19T15:14:30.495Z,23.12
2023-05-19T15:16:58.971Z,23.12
2023-05-19T15:19:26.487Z,23.15
2023-05-19T15:21:53.929Z,23.09
2023-05-19T15:24:21.520Z,23.01
2023-05-19T15:26:48.741Z,23.20
2023-05-19T15:29:15.941Z,23.32
2023-05-19T15:31:43.524Z,23.44
2023-05-19T15:34:10.785Z,23.48
2023-05-19T15:36:38.022Z,23.57
2023-05-19T15:39:06.492Z,23.64
2023-05-19T15:41:33.682Z,23.71
2023-05-19T15:44:02.309Z,23.73
2023-05-19T15:46:30.419Z,23.64
2023-05-19T15:48:57.647Z,23.51
2023-05-19T15:51:24.991Z,23.37
2023-05-19T15:53:52.527Z,23.19
2023-05-19T15:56:19.690Z,22.92
2023-05-19T15:58:46.937Z,22.83
2023-05-19T16:01:15.256Z,22.77
2023-05-19T16:03:43.603Z,22.75
2023-05-19T16:06:11.031Z,22.74
2023-05-19T16:08:38.295Z,22.74
2023-05-19T16:11:06.009Z,22.78
2023-05-19T16:13:33.657Z,22.85
2023-05-19T16:16:01.118Z,22.76
2023-05-19T16:18:31.740Z,22.78
2023-05-19T16:20:58.918Z,22.75
2023-05-19T16:23:27.418Z,22.70
2023-05-19T16:25:54.920Z,22.69
2023-05-19T16:28:24.477Z,22.73
2023-05-19T16:30:52.078Z,22.77
2023-05-19T16:33:19.640Z,22.72
2023-05-19T16:35:46.826Z,22.70
2023-05-19T16:38:13.950Z,22.63
2023-05-19T16:40:41.403Z,22.56
2023-05-19T16:43:08.544Z,22.55
2023-05-19T16:45:35.758Z,22.60
2023-05-19T16:48:03.618Z,22.67
2023-05-19T16:50:31.042Z,22.69
2023-05-19T16:52:58.232Z,22.72
2023-05-19T16:55:26.758Z,22.70
2023-05-19T16:57:53.995Z,22.62
2023-05-19T17:00:21.213Z,22.57
2023-05-19T17:02:48.695Z,22.62
2023-05-19T17:05:15.952Z,22.43
2023-05-19T17:07:43.093Z,22.31
2023-05-19T17:10:10.941Z,22.22
2023-05-19T17:12:38.110Z,22.16
2023-05-19T17:15:05.911Z,22.11
2023-05-19T17:17:33.357Z,22.02
2023-05-19T17:20:00.656Z,21.84
2023-05-19T17:22:28.807Z,21.82
2023-05-19T17:24:57.787Z,21.77
2023-05-19T17:27:25.053Z,21.62
2023-05-19T17:29:52.179Z,21.55
2023-05-19T17:32:25.488Z,21.50
2023-05-19T17:34:52.946Z,21.27
2023-05-19T17:37:23.475Z,21.01
2023-05-19T17:39:50.934Z,20.80
2023-05-19T17:42:18.097Z,20.70
2023-05-19T17:44:45.532Z,20.62
2023-05-19T17:47:12.646Z,20.50
2023-05-19T17:49:40.308Z,20.34
2023-05-19T17:52:08.348Z,20.18
2023-05-19T17:54:35.861Z,20.06
2023-05-19T17:57:03.628Z,19.87
2023-05-19T17:59:31.385Z,19.72
2023-05-19T18:01:58.829Z,19.59
2023-05-19T18:04:26.598Z,19.47
2023-05-19T18:06:54.576Z,19.31
2023-05-19T18:09:23.368Z,19.20
2023-05-19T18:11:50.832Z,19.08
2023-05-19T18:14:18.027Z,18.94
2023-05-19T18:16:45.323Z,18.75
2023-05-19T18:19:12.890Z,18.65
2023-05-19T18:21:40.088Z,18.49
2023-05-19T18:24:07.302Z,18.36
2023-05-19T18:26:37.636Z,18.26
2023-05-19T18:29:05.051Z,18.10
2023-05-19T18:31:32.265Z,18.04
2023-05-19T18:33:59.771Z,17.93
2023-05-19T18:36:27.027Z,17.81
2023-05-19T18:38:55.130Z,17.71
2023-05-19T18:41:22.827Z,17.60
2023-05-19T18:43:50.105Z,17.52
2023-05-19T18:46:18.000Z,17.46
2023-05-19T18:48:45.616Z,17.35
2023-05-19T18:51:15.768Z,17.21
2023-05-19T18:53:42.885Z,17.13
2023-05-19T18:56:15.199Z,17.13
2023-05-19T18:58:42.409Z,17.06
2023-05-19T19:01:09.966Z,16.98
2023-05-19T19:03:37.212Z,16.93
2023-05-19T19:06:04.383Z,16.87
2023-05-19T19:08:31.862Z,16.81
2023-05-19T19:11:01.044Z,16.65
2023-05-19T19:13:28.399Z,16.59
2023-05-19T19:15:55.830Z,16.59
2023-05-19T19:18:23.001Z,16.51
2023-05-19T19:20:50.159Z,16.44
2023-05-19T19:23:17.747Z,16.40
2023-05-19T19:25:44.856Z,16.35
2023-05-19T19:28:11.989Z,16.37
2023-05-19T19:30:39.576Z,16.36
2023-05-19T19:33:07.065Z,16.29
2023-05-19T19:35:34.966Z,16.19
2023-05-19T19:38:02.467Z,16.14
2023-05-19T19:40:29.770Z,16.17
2023-05-19T19:42:57.021Z,16.18
2023-05-19T19:45:25.924Z,16.26
2023-05-19T19:47:53.547Z,16.30
2023-05-19T19:50:20.793Z,16.40
2023-05-19T19:52:48.254Z,16.51
2023-05-19T19:55:15.828Z,16.51
2023-05-19T19:57:45.601Z,16.49
2023-05-19T20:00:13.555Z,16.48
2023-05-19T20:02:55.856Z,16.40
2023-05-19T20:05:29.112Z,16.37
2023-05-19T20:07:56.520Z,16.39
2023-05-19T20:10:23.642Z,16.41
2023-05-19T20:12:51.184Z,16.41
2023-05-19T20:15:18.772Z,16.39
2023-05-19T20:17:46.286Z,16.40
2023-05-19T20:20:13.928Z,16.47
2023-05-19T20:22:41.406Z,16.54
2023-05-19T20:25:08.950Z,16.50
2023-05-19T20:27:36.145Z,16.44
2023-05-19T20:30:04.009Z,16.48
2023-05-19T20:32:31.658Z,16.51
2023-05-19T20:34:58.924Z,16.45
2023-05-19T20:37:26.517Z,16.42
2023-05-19T20:39:53.648Z,16.46
2023-05-19T20:42:20.769Z,16.49
2023-05-19T20:44:48.201Z,16.52
2023-05-19T20:47:15.375Z,16.52
2023-05-19T20:49:42.574Z,16.51
2023-05-19T20:52:10.119Z,16.41
2023-05-19T20:54:37.413Z,16.46
2023-05-19T20:57:08.956Z,16.48
2023-05-19T20:59:36.437Z,16.44
2023-05-19T21:02:04.339Z,16.39
2023-05-19T21:04:33.035Z,16.35
2023-05-19T21:07:01.073Z,16.32
2023-05-19T21:09:28.268Z,16.26
2023-05-19T21:11:55.441Z,16.24
2023-05-19T21:14:22.959Z,16.20
2023-05-19T21:16:51.338Z,16.18
2023-05-19T21:19:20.580Z,16.19
2023-05-19T21:21:48.204Z,16.20
2023-05-19T21:24:15.588Z,16.15
2023-05-19T21:26:43.193Z,16.11
2023-05-19T21:29:10.817Z,16.11
2023-05-19T21:31:38.240Z,16.07
2023-05-19T21:34:07.513Z,16.02
2023-05-19T21:36:35.250Z,15.99
2023-05-19T21:39:03.663Z,15.95
2023-05-19T21:41:33.502Z,15.93
2023-05-19T21:44:00.931Z,15.88
2023-05-19T21:46:29.124Z,15.75
2023-05-19T21:48:56.483Z,15.70
2023-05-19T21:51:23.922Z,15.67
2023-05-19T21:53:51.054Z,15.61
2023-05-19T21:56:18.159Z,15.59
2023-05-19T21:58:45.606Z,15.56
2023-05-19T22:01:13.220Z,15.54
2023-05-19T22:03:40.797Z,15.51
2023-05-19T22:06:08.307Z,15.45
2023-05-19T22:08:35.473Z,15.43
2023-05-19T22:11:02.952Z,15.39
2023-05-19T22:13:30.308Z,15.33
2023-05-19T22:15:58.108Z,15.29
2023-05-19T22:18:25.521Z,15.25
2023-05-19T22:20:52.644Z,15.15
2023-05-19T22:23:19.744Z,15.12
2023-05-19T22:25:47.160Z,15.08
2023-05-19T22:28:14.392Z,15.02
2023-05-19T22:30:42.296Z,14.98
2023-05-19T22:33:11.709Z,14.92
2023-05-19T22:35:38.947Z,14.88
2023-05-19T22:38:07.477Z,14.86
2023-05-19T22:40:37.003Z,14.87
2023-05-19T22:43:04.240Z,14.88
2023-05-19T22:45:31.647Z,14.87
2023-05-19T22:47:59.484Z,14.80
2023-05-19T22:50:26.783Z,14.75
2023-05-19T22:52:53.976Z,14.74
2023-05-19T22:55:21.463Z,14.69
2023-05-19T22:57:48.678Z,14.73
2023-05-19T23:00:18.641Z,14.77
2023-05-19T23:02:46.846Z,14.74
2023-05-19T23:05:14.053Z,14.72
2023-05-19T23:07:41.258Z,14.68
2023-05-19T23:10:09.062Z,14.73
2023-05-19T23:12:36.236Z,14.74
2023-05-19T23:15:03.884Z,14.75
2023-05-19T23:17:33.304Z,14.73
2023-05-19T23:20:00.549Z,14.74
2023-05-19T23:22:27.805Z,14.72
2023-05-19T23:24:55.267Z,14.70
2023-05-19T23:27:22.340Z,14.73
2023-05-19T23:29:51.524Z,14.72
2023-05-19T23:32:18.902Z,14.63
2023-05-19T23:34:47.101Z,14.57
2023-05-19T23:37:14.428Z,14.55
2023-05-19T23:39:41.971Z,14.51
2023-05-19T23:42:09.181Z,14.48
2023-05-19T23:44:36.399Z,14.41
2023-05-19T23:47:03.997Z,14.44
2023-05-19T23:49:31.179Z,14.46
2023-05-19T23:51:58.330Z,14.51
2023-05-19T23:54:26.637Z,14.47
2023-05-19T23:56:55.773Z,14.41
2023-05-19T23:59:23.128Z,14.35
